sensor_id;sensor_type;location;lat;lon;timestamp;P1;durP1;ratioP1;P2;durP2;ratioP2
5052;SDS011;2545;50.892;5.740;2023-04-12T00:02:23;3.17;;;1.90;;
5052;SDS011;2545;50.892;5.740;2023-04-12T00:04:51;10.97;;;2.67;;
5052;SDS011;2545;50.892;5.740;2023-04-12T00:07:22;16.50;;;3.00;;
5052;SDS011;2545;50.892;5.740;2023-04-12T00:09:48;5.60;;;1.57;;
5052;SDS011;2545;50.892;5.740;2023-04-12T00:12:14;12.43;;;2.20;;
5052;SDS011;2545;50.892;5.740;2023-04-12T00:14:41;8.10;;;2.27;;
5052;SDS011;2545;50.892;5.740;2023-04-12T00:17:07;4.70;;;1.70;;
5052;SDS011;2545;50.892;5.740;2023-04-12T00:19:32;7.17;;;2.10;;
5052;SDS011;2545;50.892;5.740;2023-04-12T00:21:58;5.53;;;2.13;;
5052;SDS011;2545;50.892;5.740;2023-04-12T00:24:24;6.10;;;2.00;;
5052;SDS011;2545;50.892;5.740;2023-04-12T00:26:50;11.17;;;2.20;;
5052;SDS011;2545;50.892;5.740;2023-04-12T00:29:15;4.93;;;1.87;;
5052;SDS011;2545;50.892;5.740;2023-04-12T00:31:41;7.93;;;2.27;;
5052;SDS011;2545;50.892;5.740;2023-04-12T00:34:06;4.70;;;1.93;;
5052;SDS011;2545;50.892;5.740;2023-04-12T00:36:31;2.50;;;1.60;;
5052;SDS011;2545;50.892;5.740;2023-04-12T00:38:56;3.07;;;1.83;;
5052;SDS011;2545;50.892;5.740;2023-04-12T00:41:22;9.30;;;1.73;;
5052;SDS011;2545;50.892;5.740;2023-04-12T00:43:48;6.33;;;1.93;;
5052;SDS011;2545;50.892;5.740;2023-04-12T00:46:14;2.83;;;1.57;;
5052;SDS011;2545;50.892;5.740;2023-04-12T00:48:41;6.90;;;2.13;;
5052;SDS011;2545;50.892;5.740;2023-04-12T00:51:07;5.57;;;1.87;;
5052;SDS011;2545;50.892;5.740;2023-04-12T00:53:33;3.97;;;1.50;;
5052;SDS011;2545;50.892;5.740;2023-04-12T00:55:59;2.77;;;1.70;;
5052;SDS011;2545;50.892;5.740;2023-04-12T00:58:25;5.30;;;1.77;;
5052;SDS011;2545;50.892;5.740;2023-04-12T01:00:50;5.63;;;1.53;;
5052;SDS011;2545;50.892;5.740;2023-04-12T01:03:22;2.83;;;1.90;;
5052;SDS011;2545;50.892;5.740;2023-04-12T01:05:56;2.93;;;1.43;;
5052;SDS011;2545;50.892;5.740;2023-04-12T01:11:12;2.90;;;1.43;;
5052;SDS011;2545;50.892;5.740;2023-04-12T01:13:58;3.57;;;1.40;;
5052;SDS011;2545;50.892;5.740;2023-04-12T01:16:35;6.40;;;1.97;;
5052;SDS011;2545;50.892;5.740;2023-04-12T01:19:11;3.70;;;1.70;;
5052;SDS011;2545;50.892;5.740;2023-04-12T01:30:18;5.70;;;1.57;;
5052;SDS011;2545;50.892;5.740;2023-04-12T01:32:50;4.97;;;1.73;;
5052;SDS011;2545;50.892;5.740;2023-04-12T01:35:18;4.67;;;1.40;;
5052;SDS011;2545;50.892;5.740;2023-04-12T01:37:46;3.20;;;1.83;;
5052;SDS011;2545;50.892;5.740;2023-04-12T01:40:12;4.10;;;1.83;;
5052;SDS011;2545;50.892;5.740;2023-04-12T01:42:38;3.30;;;1.97;;
5052;SDS011;2545;50.892;5.740;2023-04-12T01:45:04;5.60;;;1.80;;
5052;SDS011;2545;50.892;5.740;2023-04-12T01:47:30;3.93;;;1.80;;
5052;SDS011;2545;50.892;5.740;2023-04-12T01:52:44;8.97;;;2.47;;
5052;SDS011;2545;50.892;5.740;2023-04-12T01:55:16;5.50;;;1.60;;
5052;SDS011;2545;50.892;5.740;2023-04-12T01:57:46;6.73;;;2.10;;
5052;SDS011;2545;50.892;5.740;2023-04-12T02:00:12;4.97;;;2.10;;
5052;SDS011;2545;50.892;5.740;2023-04-12T02:02:39;2.93;;;1.50;;
5052;SDS011;2545;50.892;5.740;2023-04-12T02:05:06;5.33;;;1.90;;
5052;SDS011;2545;50.892;5.740;2023-04-12T02:07:33;4.50;;;1.80;;
5052;SDS011;2545;50.892;5.740;2023-04-12T02:09:59;4.23;;;1.80;;
5052;SDS011;2545;50.892;5.740;2023-04-12T02:12:25;3.03;;;1.90;;
5052;SDS011;2545;50.892;5.740;2023-04-12T02:14:50;4.30;;;1.80;;
5052;SDS011;2545;50.892;5.740;2023-04-12T02:17:16;3.77;;;2.17;;
5052;SDS011;2545;50.892;5.740;2023-04-12T02:19:42;5.83;;;1.50;;
5052;SDS011;2545;50.892;5.740;2023-04-12T02:22:07;2.40;;;1.67;;
5052;SDS011;2545;50.892;5.740;2023-04-12T02:24:32;3.27;;;1.80;;
5052;SDS011;2545;50.892;5.740;2023-04-12T02:26:58;3.10;;;1.40;;
5052;SDS011;2545;50.892;5.740;2023-04-12T02:29:23;2.30;;;1.50;;
5052;SDS011;2545;50.892;5.740;2023-04-12T02:31:48;11.13;;;1.50;;
5052;SDS011;2545;50.892;5.740;2023-04-12T02:34:15;1.83;;;1.20;;
5052;SDS011;2545;50.892;5.740;2023-04-12T02:36:45;3.40;;;1.03;;
5052;SDS011;2545;50.892;5.740;2023-04-12T02:39:11;1.80;;;1.33;;
5052;SDS011;2545;50.892;5.740;2023-04-12T02:41:36;3.67;;;1.13;;
5052;SDS011;2545;50.892;5.740;2023-04-12T02:44:01;2.30;;;1.10;;
5052;SDS011;2545;50.892;5.740;2023-04-12T02:46:27;2.67;;;1.50;;
5052;SDS011;2545;50.892;5.740;2023-04-12T02:48:52;1.43;;;1.20;;
5052;SDS011;2545;50.892;5.740;2023-04-12T02:51:18;1.67;;;1.20;;
5052;SDS011;2545;50.892;5.740;2023-04-12T02:53:43;1.30;;;1.20;;
5052;SDS011;2545;50.892;5.740;2023-04-12T02:56:08;3.67;;;1.20;;
5052;SDS011;2545;50.892;5.740;2023-04-12T02:58:34;1.73;;;1.33;;
5052;SDS011;2545;50.892;5.740;2023-04-12T03:01:00;1.00;;;0.90;;
5052;SDS011;2545;50.892;5.740;2023-04-12T03:03:25;2.63;;;1.63;;
5052;SDS011;2545;50.892;5.740;2023-04-12T03:05:52;1.50;;;1.20;;
5052;SDS011;2545;50.892;5.740;2023-04-12T03:08:18;3.50;;;1.30;;
5052;SDS011;2545;50.892;5.740;2023-04-12T03:10:44;2.47;;;0.97;;
5052;SDS011;2545;50.892;5.740;2023-04-12T03:13:09;7.50;;;1.30;;
5052;SDS011;2545;50.892;5.740;2023-04-12T03:15:35;1.80;;;1.50;;
5052;SDS011;2545;50.892;5.740;2023-04-12T03:18:00;2.10;;;1.07;;
5052;SDS011;2545;50.892;5.740;2023-04-12T03:20:26;2.30;;;1.30;;
5052;SDS011;2545;50.892;5.740;2023-04-12T03:22:52;2.00;;;1.30;;
5052;SDS011;2545;50.892;5.740;2023-04-12T03:25:18;1.97;;;1.60;;
5052;SDS011;2545;50.892;5.740;2023-04-12T03:27:44;7.03;;;2.27;;
5052;SDS011;2545;50.892;5.740;2023-04-12T03:30:09;1.60;;;1.50;;
5052;SDS011;2545;50.892;5.740;2023-04-12T03:32:35;1.60;;;1.20;;
5052;SDS011;2545;50.892;5.740;2023-04-12T03:35:01;4.20;;;1.77;;
5052;SDS011;2545;50.892;5.740;2023-04-12T03:37:27;1.70;;;1.30;;
5052;SDS011;2545;50.892;5.740;2023-04-12T03:39:53;2.27;;;1.50;;
5052;SDS011;2545;50.892;5.740;2023-04-12T03:42:18;5.33;;;1.70;;
5052;SDS011;2545;50.892;5.740;2023-04-12T03:44:43;2.83;;;1.70;;
5052;SDS011;2545;50.892;5.740;2023-04-12T03:47:09;2.30;;;1.50;;
5052;SDS011;2545;50.892;5.740;2023-04-12T03:49:35;4.07;;;1.60;;
5052;SDS011;2545;50.892;5.740;2023-04-12T03:52:02;5.10;;;2.00;;
5052;SDS011;2545;50.892;5.740;2023-04-12T03:54:29;4.00;;;1.20;;
5052;SDS011;2545;50.892;5.740;2023-04-12T03:56:54;1.43;;;1.30;;
5052;SDS011;2545;50.892;5.740;2023-04-12T03:59:20;2.77;;;1.60;;
5052;SDS011;2545;50.892;5.740;2023-04-12T04:01:46;4.73;;;1.70;;
5052;SDS011;2545;50.892;5.740;2023-04-12T04:04:11;2.80;;;1.60;;
5052;SDS011;2545;50.892;5.740;2023-04-12T04:06:37;1.70;;;1.60;;
5052;SDS011;2545;50.892;5.740;2023-04-12T04:09:03;4.10;;;1.80;;
5052;SDS011;2545;50.892;5.740;2023-04-12T04:11:28;3.03;;;1.40;;
5052;SDS011;2545;50.892;5.740;2023-04-12T04:13:53;6.30;;;1.40;;
5052;SDS011;2545;50.892;5.740;2023-04-12T04:16:19;3.23;;;1.60;;
5052;SDS011;2545;50.892;5.740;2023-04-12T04:18:44;1.53;;;1.20;;
5052;SDS011;2545;50.892;5.740;2023-04-12T04:21:10;1.60;;;1.50;;
5052;SDS011;2545;50.892;5.740;2023-04-12T04:23:35;1.23;;;1.13;;
5052;SDS011;2545;50.892;5.740;2023-04-12T04:26:04;1.33;;;1.20;;
5052;SDS011;2545;50.892;5.740;2023-04-12T04:28:33;3.10;;;1.20;;
5052;SDS011;2545;50.892;5.740;2023-04-12T04:31:01;5.43;;;2.80;;
5052;SDS011;2545;50.892;5.740;2023-04-12T04:33:30;2.30;;;1.27;;
5052;SDS011;2545;50.892;5.740;2023-04-12T04:35:56;2.30;;;1.20;;
5052;SDS011;2545;50.892;5.740;2023-04-12T04:38:21;1.80;;;1.60;;
5052;SDS011;2545;50.892;5.740;2023-04-12T04:40:49;2.57;;;1.67;;
5052;SDS011;2545;50.892;5.740;2023-04-12T04:43:17;1.30;;;1.20;;
5052;SDS011;2545;50.892;5.740;2023-04-12T04:45:44;1.57;;;1.30;;
5052;SDS011;2545;50.892;5.740;2023-04-12T04:48:12;1.43;;;1.33;;
5052;SDS011;2545;50.892;5.740;2023-04-12T04:50:37;2.40;;;1.50;;
5052;SDS011;2545;50.892;5.740;2023-04-12T04:53:03;4.53;;;1.43;;
5052;SDS011;2545;50.892;5.740;2023-04-12T04:55:28;2.63;;;1.47;;
5052;SDS011;2545;50.892;5.740;2023-04-12T04:57:54;3.00;;;1.30;;
5052;SDS011;2545;50.892;5.740;2023-04-12T05:00:21;1.23;;;1.13;;
5052;SDS011;2545;50.892;5.740;2023-04-12T05:02:50;3.27;;;1.47;;
5052;SDS011;2545;50.892;5.740;2023-04-12T05:05:15;2.80;;;1.30;;
5052;SDS011;2545;50.892;5.740;2023-04-12T05:07:41;1.97;;;1.10;;
5052;SDS011;2545;50.892;5.740;2023-04-12T05:10:07;1.50;;;1.17;;
5052;SDS011;2545;50.892;5.740;2023-04-12T05:12:34;5.60;;;1.53;;
5052;SDS011;2545;50.892;5.740;2023-04-12T05:15:00;3.57;;;1.30;;
5052;SDS011;2545;50.892;5.740;2023-04-12T05:17:26;1.33;;;1.23;;
5052;SDS011;2545;50.892;5.740;2023-04-12T05:19:51;2.70;;;1.10;;
5052;SDS011;2545;50.892;5.740;2023-04-12T05:22:16;1.47;;;1.20;;
5052;SDS011;2545;50.892;5.740;2023-04-12T05:24:44;2.80;;;1.30;;
5052;SDS011;2545;50.892;5.740;2023-04-12T05:27:10;10.17;;;1.13;;
5052;SDS011;2545;50.892;5.740;2023-04-12T05:29:35;1.93;;;1.20;;
5052;SDS011;2545;50.892;5.740;2023-04-12T05:32:01;5.83;;;1.43;;
5052;SDS011;2545;50.892;5.740;2023-04-12T05:34:26;2.83;;;1.07;;
5052;SDS011;2545;50.892;5.740;2023-04-12T05:36:51;1.33;;;1.13;;
5052;SDS011;2545;50.892;5.740;2023-04-12T05:39:17;2.80;;;2.20;;
5052;SDS011;2545;50.892;5.740;2023-04-12T05:41:42;1.30;;;1.13;;
5052;SDS011;2545;50.892;5.740;2023-04-12T05:44:07;3.20;;;2.00;;
5052;SDS011;2545;50.892;5.740;2023-04-12T05:46:33;2.30;;;1.27;;
5052;SDS011;2545;50.892;5.740;2023-04-12T05:48:58;1.50;;;0.93;;
5052;SDS011;2545;50.892;5.740;2023-04-12T05:51:23;1.70;;;1.20;;
5052;SDS011;2545;50.892;5.740;2023-04-12T05:53:50;7.20;;;1.53;;
5052;SDS011;2545;50.892;5.740;2023-04-12T05:56:15;1.63;;;1.10;;
5052;SDS011;2545;50.892;5.740;2023-04-12T05:58:40;1.57;;;1.00;;
5052;SDS011;2545;50.892;5.740;2023-04-12T06:01:06;2.37;;;1.00;;
5052;SDS011;2545;50.892;5.740;2023-04-12T06:03:31;1.57;;;1.17;;
5052;SDS011;2545;50.892;5.740;2023-04-12T06:05:57;2.60;;;1.00;;
5052;SDS011;2545;50.892;5.740;2023-04-12T06:08:22;6.77;;;1.27;;
5052;SDS011;2545;50.892;5.740;2023-04-12T06:10:48;3.00;;;1.17;;
5052;SDS011;2545;50.892;5.740;2023-04-12T06:13:13;1.33;;;1.10;;
5052;SDS011;2545;50.892;5.740;2023-04-12T06:15:38;2.60;;;1.27;;
5052;SDS011;2545;50.892;5.740;2023-04-12T06:18:05;2.10;;;1.27;;
5052;SDS011;2545;50.892;5.740;2023-04-12T06:20:31;1.80;;;1.13;;
5052;SDS011;2545;50.892;5.740;2023-04-12T06:22:56;1.77;;;1.10;;
5052;SDS011;2545;50.892;5.740;2023-04-12T06:25:22;1.17;;;1.07;;
5052;SDS011;2545;50.892;5.740;2023-04-12T06:27:48;1.53;;;1.40;;
5052;SDS011;2545;50.892;5.740;2023-04-12T06:30:13;1.27;;;1.17;;
5052;SDS011;2545;50.892;5.740;2023-04-12T06:32:38;1.80;;;1.30;;
5052;SDS011;2545;50.892;5.740;2023-04-12T06:35:04;1.73;;;1.30;;
5052;SDS011;2545;50.892;5.740;2023-04-12T06:37:30;2.13;;;1.07;;
5052;SDS011;2545;50.892;5.740;2023-04-12T06:39:55;4.80;;;1.30;;
5052;SDS011;2545;50.892;5.740;2023-04-12T06:42:20;1.20;;;1.10;;
5052;SDS011;2545;50.892;5.740;2023-04-12T06:44:46;3.83;;;1.47;;
5052;SDS011;2545;50.892;5.740;2023-04-12T06:47:11;12.23;;;1.60;;
5052;SDS011;2545;50.892;5.740;2023-04-12T06:49:37;1.23;;;1.13;;
5052;SDS011;2545;50.892;5.740;2023-04-12T06:52:02;1.23;;;1.13;;
5052;SDS011;2545;50.892;5.740;2023-04-12T06:54:27;2.67;;;1.20;;
5052;SDS011;2545;50.892;5.740;2023-04-12T06:56:53;1.17;;;1.07;;
5052;SDS011;2545;50.892;5.740;2023-04-12T06:59:18;2.70;;;1.07;;
5052;SDS011;2545;50.892;5.740;2023-04-12T07:01:43;1.90;;;1.10;;
5052;SDS011;2545;50.892;5.740;2023-04-12T07:04:09;2.30;;;1.63;;
5052;SDS011;2545;50.892;5.740;2023-04-12T07:06:35;4.73;;;1.30;;
5052;SDS011;2545;50.892;5.740;2023-04-12T07:09:00;3.23;;;1.53;;
5052;SDS011;2545;50.892;5.740;2023-04-12T07:11:26;2.20;;;1.67;;
5052;SDS011;2545;50.892;5.740;2023-04-12T07:13:52;5.37;;;1.73;;
5052;SDS011;2545;50.892;5.740;2023-04-12T07:16:17;2.13;;;1.20;;
5052;SDS011;2545;50.892;5.740;2023-04-12T07:18:43;6.93;;;1.60;;
5052;SDS011;2545;50.892;5.740;2023-04-12T07:21:08;1.43;;;1.00;;
5052;SDS011;2545;50.892;5.740;2023-04-12T07:23:34;1.80;;;1.23;;
5052;SDS011;2545;50.892;5.740;2023-04-12T07:25:59;2.37;;;1.10;;
5052;SDS011;2545;50.892;5.740;2023-04-12T07:28:25;2.33;;;1.87;;
5052;SDS011;2545;50.892;5.740;2023-04-12T07:30:51;1.50;;;1.13;;
5052;SDS011;2545;50.892;5.740;2023-04-12T07:33:16;1.10;;;1.00;;
5052;SDS011;2545;50.892;5.740;2023-04-12T07:35:41;5.23;;;1.30;;
5052;SDS011;2545;50.892;5.740;2023-04-12T07:38:07;1.97;;;1.40;;
5052;SDS011;2545;50.892;5.740;2023-04-12T07:40:32;2.77;;;1.93;;
5052;SDS011;2545;50.892;5.740;2023-04-12T07:42:57;2.20;;;1.70;;
5052;SDS011;2545;50.892;5.740;2023-04-12T07:45:23;3.13;;;1.30;;
5052;SDS011;2545;50.892;5.740;2023-04-12T07:47:48;2.03;;;1.30;;
5052;SDS011;2545;50.892;5.740;2023-04-12T07:50:14;3.60;;;1.50;;
5052;SDS011;2545;50.892;5.740;2023-04-12T07:52:39;4.30;;;1.20;;
5052;SDS011;2545;50.892;5.740;2023-04-12T07:55:05;3.47;;;1.70;;
5052;SDS011;2545;50.892;5.740;2023-04-12T07:57:30;2.80;;;1.30;;
5052;SDS011;2545;50.892;5.740;2023-04-12T07:59:56;1.43;;;1.33;;
5052;SDS011;2545;50.892;5.740;2023-04-12T08:02:21;2.40;;;1.20;;
5052;SDS011;2545;50.892;5.740;2023-04-12T08:04:50;3.00;;;1.63;;
5052;SDS011;2545;50.892;5.740;2023-04-12T08:07:18;1.53;;;1.40;;
5052;SDS011;2545;50.892;5.740;2023-04-12T08:09:45;5.17;;;1.90;;
5052;SDS011;2545;50.892;5.740;2023-04-12T08:12:11;2.37;;;1.97;;
5052;SDS011;2545;50.892;5.740;2023-04-12T08:14:36;5.43;;;1.40;;
5052;SDS011;2545;50.892;5.740;2023-04-12T08:17:01;2.60;;;1.87;;
5052;SDS011;2545;50.892;5.740;2023-04-12T08:19:26;2.37;;;1.60;;
5052;SDS011;2545;50.892;5.740;2023-04-12T08:21:52;6.53;;;1.43;;
5052;SDS011;2545;50.892;5.740;2023-04-12T08:24:17;2.13;;;1.83;;
5052;SDS011;2545;50.892;5.740;2023-04-12T08:26:43;5.47;;;1.70;;
5052;SDS011;2545;50.892;5.740;2023-04-12T08:29:09;5.10;;;1.97;;
5052;SDS011;2545;50.892;5.740;2023-04-12T08:31:35;11.90;;;3.10;;
5052;SDS011;2545;50.892;5.740;2023-04-12T08:34:00;6.37;;;2.00;;
5052;SDS011;2545;50.892;5.740;2023-04-12T08:36:26;10.17;;;2.90;;
5052;SDS011;2545;50.892;5.740;2023-04-12T08:38:51;9.23;;;2.60;;
5052;SDS011;2545;50.892;5.740;2023-04-12T08:41:19;6.50;;;2.80;;
5052;SDS011;2545;50.892;5.740;2023-04-12T08:43:45;15.03;;;2.93;;
5052;SDS011;2545;50.892;5.740;2023-04-12T08:46:12;7.43;;;2.37;;
5052;SDS011;2545;50.892;5.740;2023-04-12T08:48:39;18.30;;;3.83;;
5052;SDS011;2545;50.892;5.740;2023-04-12T08:51:07;10.83;;;3.03;;
5052;SDS011;2545;50.892;5.740;2023-04-12T08:53:35;9.17;;;2.20;;
5052;SDS011;2545;50.892;5.740;2023-04-12T08:56:02;4.07;;;2.33;;
5052;SDS011;2545;50.892;5.740;2023-04-12T08:58:28;6.13;;;2.50;;
5052;SDS011;2545;50.892;5.740;2023-04-12T09:00:55;5.40;;;3.13;;
5052;SDS011;2545;50.892;5.740;2023-04-12T09:03:20;3.77;;;2.00;;
5052;SDS011;2545;50.892;5.740;2023-04-12T09:05:46;11.53;;;2.57;;
5052;SDS011;2545;50.892;5.740;2023-04-12T09:08:11;9.00;;;1.80;;
5052;SDS011;2545;50.892;5.740;2023-04-12T09:10:37;8.90;;;2.77;;
5052;SDS011;2545;50.892;5.740;2023-04-12T09:13:05;6.50;;;1.83;;
5052;SDS011;2545;50.892;5.740;2023-04-12T09:15:32;10.03;;;2.40;;
5052;SDS011;2545;50.892;5.740;2023-04-12T09:18:05;4.60;;;2.00;;
5052;SDS011;2545;50.892;5.740;2023-04-12T09:20:32;9.53;;;2.43;;
5052;SDS011;2545;50.892;5.740;2023-04-12T09:22:57;10.23;;;2.20;;
5052;SDS011;2545;50.892;5.740;2023-04-12T09:25:44;10.33;;;2.80;;
5052;SDS011;2545;50.892;5.740;2023-04-12T09:28:17;5.10;;;2.13;;
5052;SDS011;2545;50.892;5.740;2023-04-12T09:30:43;4.00;;;2.00;;
5052;SDS011;2545;50.892;5.740;2023-04-12T09:33:10;5.60;;;2.20;;
5052;SDS011;2545;50.892;5.740;2023-04-12T09:35:37;11.00;;;2.97;;
5052;SDS011;2545;50.892;5.740;2023-04-12T09:38:11;9.73;;;2.63;;
5052;SDS011;2545;50.892;5.740;2023-04-12T09:40:37;6.27;;;2.57;;
5052;SDS011;2545;50.892;5.740;2023-04-12T09:43:03;12.20;;;2.83;;
5052;SDS011;2545;50.892;5.740;2023-04-12T09:45:32;12.83;;;2.27;;
5052;SDS011;2545;50.892;5.740;2023-04-12T09:48:01;19.33;;;3.40;;
5052;SDS011;2545;50.892;5.740;2023-04-12T09:50:27;6.53;;;2.93;;
5052;SDS011;2545;50.892;5.740;2023-04-12T09:52:54;7.70;;;2.57;;
5052;SDS011;2545;50.892;5.740;2023-04-12T09:55:21;25.67;;;3.33;;
5052;SDS011;2545;50.892;5.740;2023-04-12T09:57:50;10.80;;;2.80;;
5052;SDS011;2545;50.892;5.740;2023-04-12T10:00:16;11.47;;;3.47;;
5052;SDS011;2545;50.892;5.740;2023-04-12T10:02:52;8.90;;;2.33;;
5052;SDS011;2545;50.892;5.740;2023-04-12T10:05:19;24.30;;;2.40;;
5052;SDS011;2545;50.892;5.740;2023-04-12T10:07:46;9.20;;;2.80;;
5052;SDS011;2545;50.892;5.740;2023-04-12T10:10:15;14.43;;;2.70;;
5052;SDS011;2545;50.892;5.740;2023-04-12T10:12:41;8.70;;;3.10;;
5052;SDS011;2545;50.892;5.740;2023-04-12T10:15:08;11.43;;;2.40;;
5052;SDS011;2545;50.892;5.740;2023-04-12T10:17:40;9.20;;;2.67;;
5052;SDS011;2545;50.892;5.740;2023-04-12T10:20:09;13.00;;;3.47;;
5052;SDS011;2545;50.892;5.740;2023-04-12T10:22:35;6.47;;;2.40;;
5052;SDS011;2545;50.892;5.740;2023-04-12T10:25:03;9.53;;;2.50;;
5052;SDS011;2545;50.892;5.740;2023-04-12T10:27:30;12.67;;;2.63;;
5052;SDS011;2545;50.892;5.740;2023-04-12T10:30:13;12.97;;;2.90;;
5052;SDS011;2545;50.892;5.740;2023-04-12T10:35:29;6.03;;;2.53;;
5052;SDS011;2545;50.892;5.740;2023-04-12T10:38:13;12.30;;;2.50;;
5052;SDS011;2545;50.892;5.740;2023-04-12T10:40:40;15.03;;;3.63;;
5052;SDS011;2545;50.892;5.740;2023-04-12T10:43:49;12.33;;;3.50;;
5052;SDS011;2545;50.892;5.740;2023-04-12T10:49:11;12.10;;;3.20;;
5052;SDS011;2545;50.892;5.740;2023-04-12T10:51:37;16.23;;;2.93;;
5052;SDS011;2545;50.892;5.740;2023-04-12T10:56:41;17.27;;;3.50;;
5052;SDS011;2545;50.892;5.740;2023-04-12T10:59:08;14.30;;;2.97;;
5052;SDS011;2545;50.892;5.740;2023-04-12T11:04:33;17.87;;;3.37;;
5052;SDS011;2545;50.892;5.740;2023-04-12T11:06:59;21.40;;;5.10;;
5052;SDS011;2545;50.892;5.740;2023-04-12T11:09:29;13.37;;;4.07;;
5052;SDS011;2545;50.892;5.740;2023-04-12T11:14:33;14.70;;;3.10;;
5052;SDS011;2545;50.892;5.740;2023-04-12T11:19:32;19.63;;;3.90;;
5052;SDS011;2545;50.892;5.740;2023-04-12T11:22:00;9.57;;;2.37;;
5052;SDS011;2545;50.892;5.740;2023-04-12T11:24:28;11.80;;;2.57;;
5052;SDS011;2545;50.892;5.740;2023-04-12T11:26:53;16.13;;;3.70;;
5052;SDS011;2545;50.892;5.740;2023-04-12T11:29:23;12.30;;;2.77;;
5052;SDS011;2545;50.892;5.740;2023-04-12T11:31:48;7.40;;;2.77;;
5052;SDS011;2545;50.892;5.740;2023-04-12T11:34:17;20.40;;;4.03;;
5052;SDS011;2545;50.892;5.740;2023-04-12T11:36:44;18.37;;;3.90;;
5052;SDS011;2545;50.892;5.740;2023-04-12T11:39:10;11.87;;;2.83;;
5052;SDS011;2545;50.892;5.740;2023-04-12T11:41:36;24.50;;;4.17;;
5052;SDS011;2545;50.892;5.740;2023-04-12T11:44:02;10.27;;;3.00;;
5052;SDS011;2545;50.892;5.740;2023-04-12T11:46:34;21.37;;;2.90;;
5052;SDS011;2545;50.892;5.740;2023-04-12T11:48:59;26.50;;;4.27;;
5052;SDS011;2545;50.892;5.740;2023-04-12T11:51:25;12.00;;;3.00;;
5052;SDS011;2545;50.892;5.740;2023-04-12T11:53:53;18.23;;;4.60;;
5052;SDS011;2545;50.892;5.740;2023-04-12T11:56:19;16.50;;;3.17;;
5052;SDS011;2545;50.892;5.740;2023-04-12T11:58:47;12.63;;;4.20;;
5052;SDS011;2545;50.892;5.740;2023-04-12T12:01:14;16.43;;;3.37;;
5052;SDS011;2545;50.892;5.740;2023-04-12T12:03:40;15.67;;;3.73;;
5052;SDS011;2545;50.892;5.740;2023-04-12T12:06:06;19.33;;;3.70;;
5052;SDS011;2545;50.892;5.740;2023-04-12T12:08:32;16.90;;;3.67;;
5052;SDS011;2545;50.892;5.740;2023-04-12T12:10:58;16.07;;;2.97;;
5052;SDS011;2545;50.892;5.740;2023-04-12T12:13:24;9.53;;;3.13;;
5052;SDS011;2545;50.892;5.740;2023-04-12T12:15:53;8.30;;;3.00;;
5052;SDS011;2545;50.892;5.740;2023-04-12T12:18:18;11.10;;;3.40;;
5052;SDS011;2545;50.892;5.740;2023-04-12T12:20:47;19.37;;;3.60;;
5052;SDS011;2545;50.892;5.740;2023-04-12T12:23:32;3.03;;;1.40;;
5052;SDS011;2545;50.892;5.740;2023-04-12T12:25:58;4.23;;;1.80;;
5052;SDS011;2545;50.892;5.740;2023-04-12T12:28:24;4.80;;;2.00;;
5052;SDS011;2545;50.892;5.740;2023-04-12T12:30:53;11.03;;;2.33;;
5052;SDS011;2545;50.892;5.740;2023-04-12T12:33:19;5.40;;;1.60;;
5052;SDS011;2545;50.892;5.740;2023-04-12T12:35:45;6.30;;;1.77;;
5052;SDS011;2545;50.892;5.740;2023-04-12T12:38:10;4.73;;;1.80;;
5052;SDS011;2545;50.892;5.740;2023-04-12T12:40:36;3.33;;;1.90;;
5052;SDS011;2545;50.892;5.740;2023-04-12T12:43:02;3.37;;;1.57;;
5052;SDS011;2545;50.892;5.740;2023-04-12T12:45:28;5.83;;;1.70;;
5052;SDS011;2545;50.892;5.740;2023-04-12T12:47:59;11.30;;;2.17;;
5052;SDS011;2545;50.892;5.740;2023-04-12T12:50:32;5.80;;;2.60;;
5052;SDS011;2545;50.892;5.740;2023-04-12T12:52:59;6.00;;;2.03;;
5052;SDS011;2545;50.892;5.740;2023-04-12T12:55:25;8.70;;;2.03;;
5052;SDS011;2545;50.892;5.740;2023-04-12T12:57:52;5.97;;;2.10;;
5052;SDS011;2545;50.892;5.740;2023-04-12T13:00:21;4.20;;;1.93;;
5052;SDS011;2545;50.892;5.740;2023-04-12T13:02:48;6.20;;;2.20;;
5052;SDS011;2545;50.892;5.740;2023-04-12T13:05:14;5.13;;;2.40;;
5052;SDS011;2545;50.892;5.740;2023-04-12T13:07:40;8.73;;;2.40;;
5052;SDS011;2545;50.892;5.740;2023-04-12T13:10:06;7.43;;;1.90;;
5052;SDS011;2545;50.892;5.740;2023-04-12T13:12:32;10.63;;;2.73;;
5052;SDS011;2545;50.892;5.740;2023-04-12T13:14:58;14.23;;;2.80;;
5052;SDS011;2545;50.892;5.740;2023-04-12T13:17:24;13.53;;;2.77;;
5052;SDS011;2545;50.892;5.740;2023-04-12T13:19:50;25.70;;;3.83;;
5052;SDS011;2545;50.892;5.740;2023-04-12T13:22:16;8.73;;;2.10;;
5052;SDS011;2545;50.892;5.740;2023-04-12T13:24:41;8.07;;;2.37;;
5052;SDS011;2545;50.892;5.740;2023-04-12T13:27:07;9.53;;;1.90;;
5052;SDS011;2545;50.892;5.740;2023-04-12T13:29:33;4.07;;;1.47;;
5052;SDS011;2545;50.892;5.740;2023-04-12T13:31:58;7.70;;;1.83;;
5052;SDS011;2545;50.892;5.740;2023-04-12T13:34:23;4.53;;;1.60;;
5052;SDS011;2545;50.892;5.740;2023-04-12T13:36:49;7.23;;;1.93;;
5052;SDS011;2545;50.892;5.740;2023-04-12T13:39:15;8.23;;;1.93;;
5052;SDS011;2545;50.892;5.740;2023-04-12T13:41:41;4.77;;;1.93;;
5052;SDS011;2545;50.892;5.740;2023-04-12T13:44:06;8.53;;;2.27;;
5052;SDS011;2545;50.892;5.740;2023-04-12T13:46:31;4.03;;;1.47;;
5052;SDS011;2545;50.892;5.740;2023-04-12T13:48:57;6.20;;;1.77;;
5052;SDS011;2545;50.892;5.740;2023-04-12T13:51:22;8.57;;;1.87;;
5052;SDS011;2545;50.892;5.740;2023-04-12T13:53:47;6.40;;;1.90;;
5052;SDS011;2545;50.892;5.740;2023-04-12T13:56:13;8.23;;;2.30;;
5052;SDS011;2545;50.892;5.740;2023-04-12T13:58:40;6.00;;;1.87;;
5052;SDS011;2545;50.892;5.740;2023-04-12T14:01:06;2.30;;;1.47;;
5052;SDS011;2545;50.892;5.740;2023-04-12T14:03:32;4.83;;;1.63;;
5052;SDS011;2545;50.892;5.740;2023-04-12T14:05:58;2.43;;;1.53;;
5052;SDS011;2545;50.892;5.740;2023-04-12T14:08:24;4.30;;;1.40;;
5052;SDS011;2545;50.892;5.740;2023-04-12T14:10:49;2.33;;;1.60;;
5052;SDS011;2545;50.892;5.740;2023-04-12T14:13:15;1.73;;;1.27;;
5052;SDS011;2545;50.892;5.740;2023-04-12T14:15:40;2.70;;;1.20;;
5052;SDS011;2545;50.892;5.740;2023-04-12T14:18:05;3.40;;;1.97;;
5052;SDS011;2545;50.892;5.740;2023-04-12T14:20:31;5.43;;;1.97;;
5052;SDS011;2545;50.892;5.740;2023-04-12T14:22:56;7.30;;;1.43;;
5052;SDS011;2545;50.892;5.740;2023-04-12T14:25:21;4.87;;;2.43;;
5052;SDS011;2545;50.892;5.740;2023-04-12T14:27:47;2.43;;;1.40;;
5052;SDS011;2545;50.892;5.740;2023-04-12T14:30:12;3.03;;;1.47;;
5052;SDS011;2545;50.892;5.740;2023-04-12T14:32:37;3.57;;;1.37;;
5052;SDS011;2545;50.892;5.740;2023-04-12T14:35:03;1.90;;;1.40;;
5052;SDS011;2545;50.892;5.740;2023-04-12T14:37:29;6.13;;;1.50;;
5052;SDS011;2545;50.892;5.740;2023-04-12T14:39:56;3.37;;;1.93;;
5052;SDS011;2545;50.892;5.740;2023-04-12T14:42:22;4.43;;;1.40;;
5052;SDS011;2545;50.892;5.740;2023-04-12T14:44:47;8.73;;;2.10;;
5052;SDS011;2545;50.892;5.740;2023-04-12T14:47:12;5.70;;;1.60;;
5052;SDS011;2545;50.892;5.740;2023-04-12T14:49:38;1.67;;;1.07;;
5052;SDS011;2545;50.892;5.740;2023-04-12T14:52:03;12.10;;;1.40;;
5052;SDS011;2545;50.892;5.740;2023-04-12T14:54:28;4.70;;;1.20;;
5052;SDS011;2545;50.892;5.740;2023-04-12T14:56:54;1.30;;;1.17;;
5052;SDS011;2545;50.892;5.740;2023-04-12T14:59:20;2.00;;;1.47;;
5052;SDS011;2545;50.892;5.740;2023-04-12T15:01:46;3.10;;;1.20;;
5052;SDS011;2545;50.892;5.740;2023-04-12T15:04:11;2.70;;;1.23;;
5052;SDS011;2545;50.892;5.740;2023-04-12T15:06:37;3.13;;;1.33;;
5052;SDS011;2545;50.892;5.740;2023-04-12T15:09:06;5.03;;;1.67;;
5052;SDS011;2545;50.892;5.740;2023-04-12T15:11:33;1.97;;;1.20;;
5052;SDS011;2545;50.892;5.740;2023-04-12T15:13:59;2.63;;;1.33;;
5052;SDS011;2545;50.892;5.740;2023-04-12T15:16:26;1.73;;;1.00;;
5052;SDS011;2545;50.892;5.740;2023-04-12T15:18:52;3.23;;;1.23;;
5052;SDS011;2545;50.892;5.740;2023-04-12T15:21:18;1.87;;;1.43;;
5052;SDS011;2545;50.892;5.740;2023-04-12T15:23:44;3.87;;;1.20;;
5052;SDS011;2545;50.892;5.740;2023-04-12T15:26:09;1.40;;;1.20;;
5052;SDS011;2545;50.892;5.740;2023-04-12T15:28:35;2.03;;;1.40;;
5052;SDS011;2545;50.892;5.740;2023-04-12T15:31:02;4.13;;;1.13;;
5052;SDS011;2545;50.892;5.740;2023-04-12T15:33:28;6.60;;;1.70;;
5052;SDS011;2545;50.892;5.740;2023-04-12T15:35:58;4.53;;;1.27;;
5052;SDS011;2545;50.892;5.740;2023-04-12T15:38:25;2.03;;;1.00;;
5052;SDS011;2545;50.892;5.740;2023-04-12T15:40:52;1.77;;;1.00;;